Terminal Aerodrome Forecast
Issued by NWS

Home | Current Version | Previous Version | Text Only | Print | Product List | Glossary On
Versions: 1 2 3 4 5 6 7 8 9 10 11 12 13
000
FTUS45 KREV 271100
TAFMMH
TAF
KMMH 271132Z 2712/2812 VRB03KT 6SM -SN BKN015 OVC030
      TEMPO 2712/2716 3SM -SN BKN005 OVC015
     FM272000 13007KT P6SM VCSH BKN025 OVC040
     FM280200 VRB03KT P6SM BKN040 OVC070
      AMD NOT SKED 2712/2714=

USA.gov is the U.S. government's official web portal to all federal, state and local government web resources and services.